Hovedside
METAR-TAF:

METAR-TAF

Lufthavner :

Newcastle, England

breddegrad: 55-02N, lengdegrad: 001-42W, høyde over havet: 81 m

Gjeldene værobservasjon

Denne rapporten ble laget for 31 minutter siden, klokken 13:50 UTC
Vind 9 kt fra Vest
Temperatur 8°C
Luftfuktighet 93%
Trykk 1027 hPa
Sikt 10 km eller mer
Spredte skyer i en høyde av 1200 ft
Brutte skyer i en høyde av 2200 ft

METAR: EGNT 231350Z 28009KT 9999 SCT012 BKN022 08/07 Q1027

Tid: 14:21 (14:21 UTC)

Varsel

Denne rapporten ble laget for 3 timer og 16 minutter siden, klokken 11:05 UTC
Varsel gyldig fra 23. klokken 12 UTC til 24. klokken 12 UTC
Vind 8 kt fra Vest
Sikt 10 km eller mer
Spredte skyer i en høyde av 1800 ft
Sannsynlighet 30%
fra 23. klokken 12 UTC til 23. klokken 15 UTC
Sikt: 8000 m
Brutte skyer i en høyde av 800 ft
Sannsynlighet 30%
fra 24. klokken 09 UTC til 24. klokken 12 UTC
Sikt: 8000 m
Brutte skyer i en høyde av 500 ft

TAF: EGNT 231105Z 2312/2412 26008KT 9999 SCT018 PROB30 2312/2315 8000 BKN008 PROB30 2409/2412 8000 BKN005

Værobservasjoner og værvarsel for over 4000 flyplasser (METAR- og TAF-rapporter).

Tilgjengelige stasjoner er representert av de røde og gule prikkene på kartet.

Hold musepekeren over prikken for å se navnet på stasjonen.

Klikk så for å se værobservasjoner og -varsler.

For å forandre kartet kan du klikke på den grønne knappen med svart kryss for å zoome inn, på den grønne knappen med strek for å zoome ut, eller på de grønne pilene for å se tilstøtende kart.


METAR-TAF: